createdAt,value
2023-05-09T08:37:48.177Z,95622.69
2023-05-09T08:40:18.375Z,95611.59
2023-05-09T08:42:49.527Z,95604.03
2023-05-09T08:45:28.309Z,95602.91
2023-05-09T08:47:58.204Z,95597.88
2023-05-09T08:50:27.795Z,95596.81
2023-05-09T08:52:58.995Z,95597.19
2023-05-09T08:55:29.568Z,95600.28
2023-05-09T08:58:00.169Z,95604.13
2023-05-09T09:00:30.921Z,95596.38
2023-05-09T09:03:04.323Z,95598.38
2023-05-09T09:05:41.741Z,95587.81
2023-05-09T09:08:14.333Z,95578.47
2023-05-09T09:10:47.308Z,95574.75
2023-05-09T09:13:18.964Z,95571.88
2023-05-09T09:15:49.524Z,95575.66
2023-05-09T09:18:24.899Z,95568.03
2023-05-09T09:20:59.460Z,95558.72
2023-05-09T09:23:31.541Z,95553.66
2023-05-09T09:26:05.723Z,95553.22
2023-05-09T09:28:35.906Z,95548.28
2023-05-09T09:31:22.111Z,95541.91
2023-05-09T09:33:52.573Z,95531.94
2023-05-09T09:36:29.158Z,95525.50
2023-05-09T09:39:01.581Z,95526.56
2023-05-09T09:41:36.204Z,95517.97
2023-05-09T09:44:10.358Z,95535.94
2023-05-09T09:46:46.468Z,95524.25
2023-05-09T09:49:18.624Z,95513.50
2023-05-09T09:51:53.046Z,95515.25
2023-05-09T09:54:27.202Z,95512.34
2023-05-09T09:56:57.557Z,95501.25
2023-05-09T09:59:28.262Z,95498.78
2023-05-09T10:02:04.037Z,95501.16
2023-05-09T10:04:38.839Z,95491.78
2023-05-09T10:07:14.890Z,95482.69
2023-05-09T10:09:46.487Z,95477.22
2023-05-09T10:12:19.692Z,95477.72
2023-05-09T10:14:49.757Z,95477.25
2023-05-09T10:17:23.572Z,95469.94
2023-05-09T10:19:53.554Z,95460.63
2023-05-09T10:22:23.637Z,95453.88
2023-05-09T10:25:04.508Z,95456.00
2023-05-09T10:27:39.368Z,95449.88
2023-05-09T10:30:15.501Z,95434.72
2023-05-09T10:32:54.146Z,95435.25
2023-05-09T10:35:32.400Z,95430.56
2023-05-09T10:38:03.560Z,95435.91
2023-05-09T10:40:35.608Z,95431.44
2023-05-09T10:43:07.138Z,95431.09
2023-05-09T10:45:37.976Z,95426.06
2023-05-09T10:48:09.032Z,95418.97
2023-05-09T10:50:40.428Z,95411.72
2023-05-09T10:53:18.298Z,95409.69
2023-05-09T10:55:56.425Z,95404.56
2023-05-09T10:58:28.884Z,95390.22
2023-05-09T11:00:59.812Z,95393.09
2023-05-09T11:03:51.134Z,95382.66
2023-05-09T11:06:50.934Z,95371.25
2023-05-09T11:09:30.314Z,95369.75
2023-05-09T11:12:10.081Z,95370.19
2023-05-09T11:14:45.788Z,95361.41
2023-05-09T11:17:30.410Z,95356.81
2023-05-09T11:20:06.866Z,95356.97
2023-05-09T11:22:44.436Z,95355.56
2023-05-09T11:25:17.040Z,95352.81
2023-05-09T11:27:50.134Z,95339.00
2023-05-09T11:30:21.832Z,95346.34
2023-05-09T11:32:55.187Z,95338.72
2023-05-09T11:35:26.869Z,95337.16
2023-05-09T11:38:05.083Z,95326.19
2023-05-09T11:40:37.868Z,95320.16
2023-05-09T11:43:09.325Z,95324.50
2023-05-09T11:45:40.512Z,95318.78
2023-05-09T11:48:10.778Z,95315.09
2023-05-09T11:50:41.578Z,95312.78
2023-05-09T11:53:13.669Z,95306.31
2023-05-09T11:55:43.290Z,95298.75
2023-05-09T11:58:13.029Z,95295.81
2023-05-09T12:00:46.886Z,95287.31
2023-05-09T12:03:16.695Z,95289.34
2023-05-09T12:05:48.937Z,95282.22
2023-05-09T12:08:20.200Z,95280.91
2023-05-09T12:10:49.724Z,95283.72
2023-05-09T12:13:19.470Z,95277.09
2023-05-09T12:15:48.959Z,95271.66
2023-05-09T12:18:18.507Z,95268.84
2023-05-09T12:20:51.123Z,95263.78
2023-05-09T12:23:23.292Z,95262.25
2023-05-09T12:25:56.716Z,95251.03
2023-05-09T12:28:27.573Z,95252.41
2023-05-09T12:30:57.364Z,95248.06
2023-05-09T12:33:27.707Z,95248.34
2023-05-09T12:36:07.887Z,95233.94
2023-05-09T12:38:39.656Z,95227.16
2023-05-09T12:43:49.755Z,95223.09
2023-05-09T12:46:21.071Z,95225.84
2023-05-09T12:48:50.659Z,95222.31
2023-05-09T12:51:21.623Z,95218.22
2023-05-09T12:53:52.767Z,95205.69
2023-05-09T12:56:24.108Z,95199.53
2023-05-09T12:58:56.006Z,95202.06
2023-05-09T13:01:31.152Z,95199.25
2023-05-09T13:04:06.365Z,95194.19
2023-05-09T13:06:37.895Z,95199.38
2023-05-09T13:09:09.683Z,95190.97
2023-05-09T13:11:39.332Z,95190.34
2023-05-09T13:14:09.610Z,95176.56
2023-05-09T13:16:39.416Z,95177.00
2023-05-09T13:19:09.498Z,95173.72
2023-05-09T13:21:39.168Z,95170.22
2023-05-09T13:24:10.685Z,95173.50
2023-05-09T13:26:40.167Z,95166.56
2023-05-09T13:29:09.663Z,95158.53
2023-05-09T13:31:40.843Z,95156.34
2023-05-09T13:34:11.074Z,95151.50
2023-05-09T13:36:40.703Z,95144.84
2023-05-09T13:39:11.806Z,95136.69
2023-05-09T13:41:41.240Z,95129.94
2023-05-09T13:44:10.675Z,95137.16
2023-05-09T13:46:40.664Z,95134.41
2023-05-09T13:49:10.493Z,95128.06
2023-05-09T13:51:41.021Z,95119.44
2023-05-09T13:54:13.018Z,95124.00
2023-05-09T13:56:42.973Z,95118.13
2023-05-09T13:59:20.049Z,95106.34
2023-05-09T14:01:49.610Z,95102.00
2023-05-09T14:04:19.118Z,95100.50
2023-05-09T14:06:50.067Z,95099.03
2023-05-09T14:09:21.631Z,95086.06
2023-05-09T14:11:52.026Z,95096.72
2023-05-09T14:14:23.277Z,95088.81
2023-05-09T14:18:24.271Z,95089.25
2023-05-09T14:45:38.537Z,95053.78
2023-05-09T14:48:08.205Z,95045.03
2023-05-09T14:50:37.826Z,95050.31
2023-05-09T14:53:07.699Z,95043.84
2023-05-09T14:55:37.270Z,95038.56
2023-05-09T14:58:07.732Z,95042.63
2023-05-09T15:00:38.740Z,95031.72
2023-05-09T15:03:08.470Z,95028.63
2023-05-09T15:05:39.448Z,95018.41
2023-05-09T15:08:09.432Z,95019.97
2023-05-09T15:10:39.008Z,95023.00
2023-05-09T15:13:08.615Z,95009.66
2023-05-09T15:15:40.596Z,95013.13
2023-05-09T15:18:12.370Z,95011.41
2023-05-09T15:20:41.829Z,95006.91
2023-05-09T15:23:14.096Z,95004.72
2023-05-09T15:25:44.506Z,95011.53
2023-05-09T15:28:14.020Z,95001.06
2023-05-09T15:31:08.178Z,95001.22
2023-05-09T15:33:37.768Z,94989.78
2023-05-09T15:36:08.481Z,94998.06
2023-05-09T15:38:38.049Z,94996.69
2023-05-09T15:41:07.660Z,95000.31
2023-05-09T15:43:37.168Z,94993.09
2023-05-09T15:46:08.047Z,94993.50
2023-05-09T15:48:37.718Z,94987.06
2023-05-09T15:51:09.497Z,94986.94
2023-05-09T15:53:38.952Z,94985.53
2023-05-09T15:56:09.600Z,94989.28
2023-05-09T15:58:40.273Z,94989.88
2023-05-09T16:01:13.309Z,94980.72
2023-05-09T16:03:43.180Z,94971.88
2023-05-09T16:06:12.958Z,94973.25
2023-05-09T16:08:42.468Z,94974.22
2023-05-09T16:11:11.922Z,94967.78
2023-05-09T16:13:41.403Z,94963.16
2023-05-09T16:16:12.237Z,94957.78
2023-05-09T16:18:41.793Z,94957.91
2023-05-09T16:21:12.222Z,94959.56
2023-05-09T16:23:41.848Z,94954.19
2023-05-09T16:26:11.476Z,94957.16
2023-05-09T16:28:41.089Z,94951.94
2023-05-09T16:31:12.095Z,94946.38
2023-05-09T16:33:41.661Z,94946.91
2023-05-09T16:36:11.360Z,94937.38
2023-05-09T16:38:41.026Z,94929.00
2023-05-09T16:41:10.516Z,94933.16
2023-05-09T16:43:41.506Z,94929.28
2023-05-09T16:46:12.434Z,94928.75
2023-05-09T16:48:42.079Z,94926.63
2023-05-09T16:51:11.547Z,94924.41
2023-05-09T16:53:41.171Z,94921.88
2023-05-09T16:56:11.441Z,94916.00
2023-05-09T16:58:41.821Z,94910.53
2023-05-09T17:01:12.804Z,94912.16
2023-05-09T17:03:42.418Z,94911.81
2023-05-09T17:06:11.892Z,94912.53
2023-05-09T17:08:41.396Z,94913.16
2023-05-09T17:11:11.069Z,94909.19
2023-05-09T17:13:42.616Z,94906.59
2023-05-09T17:16:13.593Z,94905.97
2023-05-09T17:18:46.047Z,94903.25
2023-05-09T17:21:15.997Z,94901.00
2023-05-09T17:23:45.486Z,94905.47
2023-05-09T17:26:15.171Z,94892.25
2023-05-09T17:28:44.904Z,94895.47
2023-05-09T17:31:15.893Z,94890.81
2023-05-09T17:33:45.468Z,94892.81
2023-05-09T17:36:15.011Z,94888.75
2023-05-09T17:38:44.532Z,94881.47
2023-05-09T17:41:14.006Z,94876.91
2023-05-09T17:43:43.459Z,94876.34
2023-05-09T17:46:14.747Z,94866.47
2023-05-09T17:48:47.742Z,94870.91
2023-05-09T17:51:17.657Z,94863.94
2023-05-09T17:53:47.777Z,94852.72
2023-05-09T17:56:17.293Z,94857.91
2023-05-09T17:58:47.832Z,94849.81
2023-05-09T18:01:17.364Z,94855.81
2023-05-09T18:03:48.387Z,94853.63
2023-05-09T18:06:19.296Z,94849.88
2023-05-09T18:08:48.815Z,94846.88
2023-05-09T18:11:18.291Z,94838.13
2023-05-09T18:13:48.193Z,94842.88
2023-05-09T18:16:17.736Z,94839.22
2023-05-09T18:18:48.805Z,94839.78
2023-05-09T18:21:18.347Z,94836.44
2023-05-09T18:23:47.867Z,94842.78
2023-05-09T18:26:17.337Z,94834.03
2023-05-09T18:28:46.837Z,94833.75
2023-05-09T18:31:17.092Z,94831.91
2023-05-09T18:33:48.008Z,94841.88
2023-05-09T18:36:17.531Z,94829.25
2023-05-09T18:38:48.185Z,94846.91
2023-05-09T18:41:18.385Z,94837.31
2023-05-09T18:43:47.794Z,94843.41
2023-05-09T18:46:20.672Z,94848.72
2023-05-09T18:48:53.666Z,94836.13
2023-05-09T18:51:23.239Z,94841.44
2023-05-09T18:53:53.328Z,94845.13
2023-05-09T18:56:23.025Z,94844.53
2023-05-09T18:58:52.746Z,94846.31
2023-05-09T19:01:24.247Z,94844.56
2023-05-09T19:03:55.329Z,94840.94
2023-05-09T19:06:26.179Z,94854.41
2023-05-09T19:08:55.866Z,94847.22
2023-05-09T19:11:26.343Z,94852.50
2023-05-09T19:13:55.875Z,94848.38
2023-05-09T19:16:26.598Z,94852.88
2023-05-09T19:18:58.875Z,94860.88
2023-05-09T19:21:28.817Z,94858.84
2023-05-09T19:23:58.344Z,94862.19
2023-05-09T19:26:27.907Z,94878.38
2023-05-09T19:28:57.663Z,94872.78
2023-05-09T19:31:28.105Z,94875.34
2023-05-09T19:34:01.144Z,94870.88
2023-05-09T19:36:30.804Z,94866.88
2023-05-09T19:39:00.391Z,94870.56
2023-05-09T19:41:30.082Z,94884.38
2023-05-09T19:44:00.126Z,94886.41
2023-05-09T19:46:29.722Z,94891.22
2023-05-09T19:49:00.740Z,94890.09
2023-05-09T19:51:30.490Z,94885.19
2023-05-09T19:53:59.934Z,94878.00
2023-05-09T19:56:29.425Z,94882.97
2023-05-09T19:58:58.868Z,94887.91
2023-05-09T20:01:29.792Z,94896.84
2023-05-09T20:04:00.761Z,94908.50
2023-05-09T20:06:30.679Z,94905.34
2023-05-09T20:09:00.146Z,94909.97
2023-05-09T20:11:29.705Z,94918.75
2023-05-09T20:13:59.312Z,94918.28
2023-05-09T20:16:29.068Z,94920.97
2023-05-09T20:19:00.053Z,94932.94
2023-05-09T20:21:29.520Z,94958.47
2023-05-09T20:23:58.999Z,94976.78
2023-05-09T20:26:29.623Z,94975.91
2023-05-09T20:29:01.533Z,94986.28
2023-05-09T20:31:32.400Z,94979.44
2023-05-09T20:34:03.448Z,94988.22
2023-05-09T20:36:32.977Z,94987.91
2023-05-09T20:39:02.768Z,94997.66
2023-05-09T20:41:34.850Z,95000.63
2023-05-09T20:44:04.627Z,94998.50
2023-05-09T20:46:35.288Z,94993.75
2023-05-09T20:49:06.405Z,95001.66
2023-05-09T20:51:36.033Z,94993.06
2023-05-09T20:54:06.378Z,95000.97
2023-05-09T20:56:35.932Z,94989.78
2023-05-09T20:59:06.307Z,94996.47
2023-05-09T21:01:36.792Z,94998.16
2023-05-09T21:04:08.518Z,94999.66
2023-05-09T21:06:38.511Z,95011.91
2023-05-09T21:09:08.952Z,95001.13
2023-05-09T21:11:39.740Z,95008.38
2023-05-09T21:14:09.867Z,95005.56
2023-05-09T21:16:39.711Z,95005.91
2023-05-09T21:19:10.938Z,95002.00
2023-05-09T21:21:40.477Z,95006.91
2023-05-09T21:24:10.512Z,95013.94
2023-05-09T21:26:40.068Z,95024.56
2023-05-09T21:29:09.592Z,95037.88
2023-05-09T21:31:39.181Z,95042.28
2023-05-09T21:34:10.652Z,95036.59
2023-05-09T21:36:43.341Z,95038.59
2023-05-09T21:39:12.808Z,95040.06
2023-05-09T21:41:43.286Z,95050.28
2023-05-09T21:44:13.049Z,95042.28
2023-05-09T21:46:45.994Z,95047.78
2023-05-09T21:49:17.667Z,95039.41
2023-05-09T21:51:47.156Z,95039.25
2023-05-09T21:54:16.835Z,95030.94
2023-05-09T21:56:46.325Z,95026.41
2023-05-09T21:59:17.689Z,95035.31
2023-05-09T22:01:47.282Z,95027.50
2023-05-09T22:04:18.159Z,95026.41
2023-05-09T22:06:47.675Z,95025.69
2023-05-09T22:09:17.539Z,95026.00
2023-05-09T22:11:47.043Z,95017.69
2023-05-09T22:14:16.616Z,95010.47
2023-05-09T22:16:46.235Z,95009.66
2023-05-09T22:19:17.414Z,95013.56
2023-05-09T22:21:48.558Z,95012.78
2023-05-09T22:24:18.007Z,95010.06
2023-05-09T22:26:47.579Z,95013.47
2023-05-09T22:29:17.668Z,95002.78
2023-05-09T22:31:47.259Z,95012.97
2023-05-09T22:34:18.161Z,95002.97
2023-05-09T22:36:47.726Z,94995.56
2023-05-09T22:39:18.052Z,95002.84
2023-05-09T22:41:48.876Z,94999.44
2023-05-09T22:44:18.321Z,94997.31
2023-05-09T22:46:47.845Z,94998.41
2023-05-09T22:49:18.729Z,94993.59
2023-05-09T22:51:48.200Z,94992.50
2023-05-09T22:54:21.194Z,94987.63
2023-05-09T22:56:50.811Z,94995.00
